createdAt,value
2022-08-22T00:01:06.121Z,19.20
2022-08-22T00:02:59.383Z,19.30
2022-08-22T00:03:09.863Z,19.30
2022-08-22T00:03:40.662Z,19.20
2022-08-22T00:06:10.578Z,19.30
2022-08-22T00:08:45.116Z,19.20
2022-08-22T00:11:12.574Z,19.20
2022-08-22T00:13:54.852Z,19.20
2022-08-22T00:16:28.842Z,19.10
2022-08-22T00:19:14.057Z,19.10
2022-08-22T00:21:58.428Z,19.10
2022-08-22T00:24:35.931Z,19.10
2022-08-22T00:27:08.337Z,19.10
2022-08-22T00:29:41.387Z,19.00
2022-08-22T00:32:23.830Z,19.00
2022-08-22T00:34:56.843Z,19.00
2022-08-22T00:37:26.339Z,19.10
2022-08-22T00:39:58.311Z,19.00
2022-08-22T00:42:46.999Z,19.00
2022-08-22T00:45:36.594Z,19.00
2022-08-22T00:48:23.473Z,19.00
2022-08-22T00:51:19.279Z,19.00
2022-08-22T00:53:50.305Z,19.00
2022-08-22T00:56:36.181Z,19.00
2022-08-22T00:59:23.886Z,19.00
2022-08-22T01:01:51.291Z,19.00
2022-08-22T01:04:20.887Z,19.00
2022-08-22T01:07:05.788Z,18.90
2022-08-22T01:09:38.917Z,18.90
2022-08-22T01:12:31.766Z,18.90
2022-08-22T01:15:01.696Z,18.90
2022-08-22T01:17:50.043Z,18.90
2022-08-22T01:20:28.767Z,18.90
2022-08-22T01:23:24.262Z,18.90
2022-08-22T01:26:09.890Z,18.90
2022-08-22T01:29:10.516Z,18.90
2022-08-22T01:31:40.427Z,19.00
2022-08-22T01:34:25.875Z,19.00
2022-08-22T01:37:11.122Z,19.00
2022-08-22T01:39:56.511Z,18.90
2022-08-22T01:42:38.490Z,18.90
2022-08-22T01:45:14.072Z,18.90
2022-08-22T01:47:41.663Z,18.90
2022-08-22T01:50:26.991Z,18.90
2022-08-22T01:53:00.871Z,18.90
2022-08-22T01:55:34.579Z,18.80
2022-08-22T01:58:04.807Z,18.80
2022-08-22T02:00:35.035Z,18.80
2022-08-22T02:03:14.481Z,18.80
2022-08-22T02:05:50.332Z,18.80
2022-08-22T02:08:30.871Z,18.80
2022-08-22T02:11:00.157Z,18.80
2022-08-22T02:13:26.642Z,18.80
2022-08-22T02:16:06.582Z,18.80
2022-08-22T02:18:41.898Z,18.80
2022-08-22T02:21:11.883Z,18.80
2022-08-22T02:23:52.469Z,18.80
2022-08-22T02:26:41.106Z,18.80
2022-08-22T02:29:13.955Z,18.80
2022-08-22T02:31:58.347Z,18.80
2022-08-22T02:34:38.536Z,18.70
2022-08-22T02:37:11.036Z,18.70
2022-08-22T02:39:41.843Z,18.70
2022-08-22T02:42:14.849Z,18.70
2022-08-22T02:44:47.263Z,18.70
2022-08-22T02:47:27.776Z,18.70
2022-08-22T02:50:00.215Z,18.60
2022-08-22T02:52:33.946Z,18.60
2022-08-22T02:55:07.418Z,18.60
2022-08-22T02:57:39.988Z,18.60
2022-08-22T03:00:31.945Z,18.60
2022-08-22T03:02:59.440Z,18.60
2022-08-22T03:05:38.139Z,18.60
2022-08-22T03:08:08.540Z,18.70
2022-08-22T03:10:39.354Z,18.70
2022-08-22T03:13:16.975Z,18.70
2022-08-22T03:15:49.299Z,18.70
2022-08-22T03:18:19.883Z,18.70
2022-08-22T03:20:53.087Z,18.70
2022-08-22T03:23:38.382Z,18.70
2022-08-22T03:26:21.361Z,18.70
2022-08-22T03:28:59.191Z,18.70
2022-08-22T03:31:27.796Z,18.70
2022-08-22T03:34:13.389Z,18.70
2022-08-22T03:36:40.849Z,18.70
2022-08-22T03:39:33.836Z,18.60
2022-08-22T03:42:12.055Z,18.60
2022-08-22T03:44:49.566Z,18.70
2022-08-22T03:47:42.626Z,18.60
2022-08-22T03:50:21.058Z,18.70
2022-08-22T03:53:15.543Z,18.70
2022-08-22T03:55:51.758Z,18.60
2022-08-22T03:58:36.719Z,18.60
2022-08-22T04:01:26.653Z,18.60
2022-08-22T04:03:59.766Z,18.60
2022-08-22T04:06:38.771Z,18.60
2022-08-22T04:09:34.265Z,18.70
2022-08-22T04:12:18.998Z,18.70
2022-08-22T04:15:10.887Z,18.70
2022-08-22T04:17:46.508Z,18.70
2022-08-22T04:20:13.031Z,18.60
2022-08-22T04:22:59.838Z,18.60
2022-08-22T04:25:35.169Z,18.70
2022-08-22T04:28:13.960Z,18.70
2022-08-22T04:30:43.571Z,18.70
2022-08-22T04:33:14.291Z,18.70
2022-08-22T04:35:44.765Z,18.70
2022-08-22T04:38:21.709Z,18.70
2022-08-22T04:40:51.939Z,18.70
2022-08-22T04:43:27.964Z,18.70
2022-08-22T04:46:15.987Z,18.60
2022-08-22T04:49:01.479Z,18.70
2022-08-22T04:51:32.146Z,18.70
2022-08-22T04:54:17.171Z,18.70
2022-08-22T04:57:02.803Z,18.60
2022-08-22T04:59:30.114Z,18.60
2022-08-22T05:02:06.244Z,18.60
2022-08-22T05:04:36.087Z,18.50
2022-08-22T05:07:02.578Z,18.50
2022-08-22T05:09:32.294Z,18.50
2022-08-22T05:12:02.715Z,18.50
2022-08-22T05:14:36.504Z,18.60
2022-08-22T05:17:05.909Z,18.60
2022-08-22T05:19:35.501Z,18.60
2022-08-22T05:22:04.851Z,18.60
2022-08-22T05:24:42.911Z,18.70
2022-08-22T05:27:11.279Z,18.70
2022-08-22T05:29:39.507Z,18.60
2022-08-22T05:32:07.471Z,18.60
2022-08-22T05:34:37.224Z,18.60
2022-08-22T05:37:19.034Z,18.60
2022-08-22T05:39:47.430Z,18.60
2022-08-22T05:42:16.673Z,18.60
2022-08-22T05:44:43.358Z,18.70
2022-08-22T05:47:23.707Z,18.70
2022-08-22T05:50:05.168Z,18.70
2022-08-22T05:52:41.741Z,18.70
2022-08-22T05:55:08.300Z,18.70
2022-08-22T05:57:37.815Z,18.80
2022-08-22T06:00:07.969Z,18.80
2022-08-22T06:02:37.363Z,18.80
2022-08-22T06:05:07.577Z,18.70
2022-08-22T06:07:41.583Z,18.80
2022-08-22T06:10:17.520Z,18.80
2022-08-22T06:13:02.560Z,18.90
2022-08-22T06:15:33.906Z,18.80
2022-08-22T06:18:03.259Z,18.90
2022-08-22T06:20:34.559Z,18.90
2022-08-22T06:23:02.318Z,19.00
2022-08-22T06:25:33.127Z,19.00
2022-08-22T06:28:08.210Z,19.00
2022-08-22T06:30:36.897Z,19.00
2022-08-22T06:33:06.278Z,19.10
2022-08-22T06:35:55.379Z,19.10
2022-08-22T06:38:24.802Z,19.00
2022-08-22T06:40:54.111Z,19.00
2022-08-22T06:43:22.899Z,19.00
2022-08-22T06:45:49.798Z,19.00
2022-08-22T06:48:18.386Z,19.00
2022-08-22T06:50:48.291Z,19.10
2022-08-22T06:53:24.320Z,19.00
2022-08-22T06:55:52.354Z,19.10
2022-08-22T06:58:25.883Z,19.00
2022-08-22T07:01:11.878Z,19.10
2022-08-22T07:03:47.016Z,19.10
2022-08-22T07:06:19.318Z,19.10
2022-08-22T07:08:52.251Z,19.10
2022-08-22T07:11:29.724Z,19.20
2022-08-22T07:14:13.319Z,19.20
2022-08-22T07:16:45.226Z,19.30
2022-08-22T07:19:25.795Z,19.40
2022-08-22T07:21:52.959Z,19.40
2022-08-22T07:24:22.458Z,19.40
2022-08-22T07:26:48.970Z,19.50
2022-08-22T07:29:30.645Z,19.60
2022-08-22T07:32:06.135Z,19.60
2022-08-22T07:34:44.838Z,19.60
2022-08-22T07:37:16.336Z,19.60
2022-08-22T07:39:54.846Z,19.70
2022-08-22T07:42:30.365Z,19.70
2022-08-22T07:45:07.591Z,19.70
2022-08-22T07:47:46.028Z,19.80
2022-08-22T07:50:20.263Z,19.90
2022-08-22T07:52:47.477Z,20.00
2022-08-22T07:55:19.098Z,20.00
2022-08-22T07:57:54.380Z,20.00
2022-08-22T08:00:21.627Z,20.00
2022-08-22T08:02:53.114Z,20.10
2022-08-22T08:05:24.012Z,20.10
2022-08-22T08:07:53.809Z,20.10
2022-08-22T08:10:26.662Z,20.20
2022-08-22T08:13:02.613Z,20.20
2022-08-22T08:15:30.236Z,20.30
2022-08-22T08:18:00.382Z,20.40
2022-08-22T08:20:27.992Z,20.50
2022-08-22T08:22:57.108Z,20.60
2022-08-22T08:25:25.885Z,20.70
2022-08-22T08:28:11.146Z,20.70
2022-08-22T08:30:40.219Z,20.80
2022-08-22T08:33:25.904Z,20.90
2022-08-22T08:36:03.876Z,21.00
2022-08-22T08:38:32.687Z,21.20
2022-08-22T08:41:14.055Z,21.30
2022-08-22T08:43:49.090Z,21.30
2022-08-22T08:46:30.120Z,21.40
2022-08-22T08:49:09.662Z,21.60
2022-08-22T08:51:42.216Z,21.70
2022-08-22T08:54:15.634Z,21.80
2022-08-22T08:56:57.912Z,21.90
2022-08-22T08:59:28.051Z,22.00
2022-08-22T09:01:55.059Z,22.10
2022-08-22T09:04:31.366Z,22.20
2022-08-22T09:07:07.916Z,22.30
2022-08-22T09:09:54.257Z,22.40
2022-08-22T09:12:30.120Z,22.50
2022-08-22T09:15:14.976Z,22.60
2022-08-22T09:17:41.498Z,22.70
2022-08-22T09:20:17.974Z,22.70
2022-08-22T09:23:04.477Z,22.80
2022-08-22T09:25:44.165Z,23.00
2022-08-22T09:28:13.952Z,23.20
2022-08-22T09:30:54.220Z,23.20
2022-08-22T09:33:22.655Z,23.20
2022-08-22T09:36:02.795Z,23.30
2022-08-22T09:38:48.053Z,23.40
2022-08-22T09:41:23.387Z,23.50
2022-08-22T09:44:09.794Z,23.70
2022-08-22T09:46:38.699Z,23.70
2022-08-22T09:49:08.531Z,23.80
2022-08-22T09:51:44.776Z,23.80
2022-08-22T09:54:18.649Z,23.90
2022-08-22T09:56:51.603Z,24.00
2022-08-22T09:59:29.596Z,24.10
2022-08-22T10:02:06.144Z,24.20
2022-08-22T10:04:47.425Z,24.40
2022-08-22T10:07:37.442Z,24.40
2022-08-22T10:10:27.354Z,24.40
2022-08-22T10:12:58.064Z,24.50
2022-08-22T10:15:29.270Z,24.70
2022-08-22T10:18:10.461Z,24.60
2022-08-22T10:20:57.402Z,24.80
2022-08-22T10:23:27.567Z,24.90
2022-08-22T10:25:58.160Z,24.90
2022-08-22T10:28:31.758Z,25.00
2022-08-22T10:31:09.659Z,25.10
2022-08-22T10:33:54.693Z,25.20
2022-08-22T10:36:27.783Z,25.20
2022-08-22T10:38:57.702Z,25.40
2022-08-22T10:41:28.562Z,25.50
2022-08-22T10:44:14.950Z,25.50
2022-08-22T10:46:54.154Z,25.30
2022-08-22T10:49:32.265Z,25.50
2022-08-22T10:52:17.029Z,25.60
2022-08-22T10:54:57.898Z,25.80
2022-08-22T10:57:27.855Z,25.80
2022-08-22T11:00:01.541Z,25.70
2022-08-22T11:02:28.039Z,25.90
2022-08-22T11:05:06.792Z,26.10
2022-08-22T11:07:36.311Z,26.00
2022-08-22T11:10:14.512Z,26.20
2022-08-22T11:12:49.795Z,26.20
2022-08-22T11:15:45.339Z,26.50
2022-08-22T11:18:20.415Z,26.50
2022-08-22T11:20:53.697Z,26.60
2022-08-22T11:23:41.914Z,26.60
2022-08-22T11:26:08.448Z,26.70
2022-08-22T11:28:50.898Z,26.70
2022-08-22T11:31:36.456Z,26.40
2022-08-22T11:34:21.188Z,26.40
2022-08-22T11:36:51.769Z,26.60
2022-08-22T11:39:19.013Z,26.50
2022-08-22T11:41:52.512Z,26.60
2022-08-22T11:44:22.310Z,26.70
2022-08-22T11:46:57.051Z,26.80
2022-08-22T11:49:43.239Z,26.90
2022-08-22T11:52:12.970Z,26.90
2022-08-22T11:54:51.785Z,27.00
2022-08-22T11:57:38.995Z,27.00
2022-08-22T12:00:12.811Z,26.90
2022-08-22T12:02:39.930Z,27.00
2022-08-22T12:05:27.102Z,27.10
2022-08-22T12:08:03.755Z,27.20
2022-08-22T12:10:33.574Z,27.20
2022-08-22T12:13:04.114Z,27.10
2022-08-22T12:15:39.551Z,27.10
2022-08-22T12:18:19.916Z,27.20
2022-08-22T12:21:02.955Z,27.30
2022-08-22T12:23:48.652Z,27.50
2022-08-22T12:26:22.021Z,27.60
2022-08-22T12:29:01.264Z,27.60
2022-08-22T12:31:54.157Z,27.60
2022-08-22T12:34:27.444Z,27.70
2022-08-22T12:37:13.676Z,27.50
2022-08-22T12:40:00.615Z,27.60
2022-08-22T12:42:46.182Z,27.50
2022-08-22T12:45:20.658Z,27.40
2022-08-22T12:48:07.438Z,27.40
2022-08-22T12:50:39.210Z,27.30
2022-08-22T12:53:09.114Z,27.10
2022-08-22T12:55:38.419Z,27.20
2022-08-22T12:58:20.364Z,27.20
2022-08-22T13:00:48.025Z,27.30
2022-08-22T13:03:14.574Z,27.30
2022-08-22T13:05:44.703Z,27.40
2022-08-22T13:08:26.420Z,27.40
2022-08-22T13:10:58.331Z,27.40
2022-08-22T13:13:31.389Z,27.40
2022-08-22T13:16:02.935Z,27.30
2022-08-22T13:18:36.554Z,27.40
2022-08-22T13:21:05.096Z,27.30
2022-08-22T13:23:34.378Z,27.30
2022-08-22T13:26:32.053Z,27.60
2022-08-22T13:29:24.668Z,27.60
2022-08-22T13:31:52.240Z,27.80
2022-08-22T13:34:43.423Z,28.20
2022-08-22T13:37:20.242Z,28.50
2022-08-22T13:39:53.601Z,29.10
2022-08-22T13:42:28.883Z,29.30
2022-08-22T13:44:59.594Z,29.70
2022-08-22T13:47:31.539Z,30.50
2022-08-22T13:50:07.600Z,30.70
2022-08-22T13:52:52.351Z,30.90
2022-08-22T13:55:34.475Z,31.40
2022-08-22T13:58:06.854Z,32.20
2022-08-22T14:00:57.349Z,32.90
2022-08-22T14:03:35.129Z,33.80
2022-08-22T14:06:37.101Z,34.20
2022-08-22T14:09:01.499Z,34.60
2022-08-22T14:11:48.287Z,34.80
2022-08-22T14:14:21.846Z,35.50
2022-08-22T14:16:50.721Z,35.80
2022-08-22T14:19:29.579Z,36.30
2022-08-22T14:21:59.512Z,36.80
2022-08-22T14:24:28.968Z,37.10
2022-08-22T14:26:58.288Z,37.10
2022-08-22T14:29:26.543Z,37.00
2022-08-22T14:32:01.147Z,36.80
2022-08-22T14:34:28.934Z,37.00
2022-08-22T14:37:04.638Z,37.30
2022-08-22T14:39:44.511Z,37.60
2022-08-22T14:42:11.242Z,37.60
2022-08-22T14:44:42.011Z,38.10
2022-08-22T14:47:32.321Z,38.50
2022-08-22T14:50:00.519Z,38.60
2022-08-22T14:52:43.919Z,38.70
2022-08-22T14:55:19.919Z,38.90
2022-08-22T14:57:54.336Z,38.50
2022-08-22T15:00:25.928Z,37.90
2022-08-22T15:03:05.839Z,37.00
2022-08-22T15:05:45.184Z,37.40
2022-08-22T15:08:19.618Z,38.00
2022-08-22T15:11:04.104Z,38.60
2022-08-22T15:13:31.166Z,39.00
2022-08-22T15:16:04.702Z,39.20
2022-08-22T15:18:34.447Z,38.90
2022-08-22T15:21:04.081Z,37.90
2022-08-22T15:23:45.083Z,37.40
2022-08-22T15:26:22.894Z,37.70
2022-08-22T15:28:55.122Z,38.00
2022-08-22T15:31:22.244Z,38.60
2022-08-22T15:33:50.098Z,38.40
2022-08-22T15:36:16.673Z,38.40
2022-08-22T15:38:47.917Z,38.30
2022-08-22T15:41:23.955Z,38.30
2022-08-22T15:44:00.319Z,38.30
2022-08-22T15:46:33.231Z,38.70
2022-08-22T15:49:06.239Z,38.80
2022-08-22T15:51:51.434Z,39.30
2022-08-22T15:54:25.033Z,38.80
2022-08-22T15:56:51.952Z,38.60
2022-08-22T15:59:53.412Z,38.50
2022-08-22T16:02:24.202Z,38.50
2022-08-22T16:04:54.915Z,37.90
2022-08-22T16:07:25.488Z,37.60
2022-08-22T16:09:53.607Z,37.30
2022-08-22T16:12:26.166Z,37.60
2022-08-22T16:14:52.894Z,37.60
2022-08-22T16:17:28.380Z,37.50
2022-08-22T16:20:19.438Z,37.60
2022-08-22T16:22:56.386Z,37.50
2022-08-22T16:25:41.646Z,37.20
2022-08-22T16:28:19.125Z,36.70
2022-08-22T16:30:52.462Z,37.00
2022-08-22T16:33:33.749Z,37.20
2022-08-22T16:36:18.350Z,36.80
2022-08-22T16:38:47.706Z,36.30
2022-08-22T16:41:32.341Z,35.60
2022-08-22T16:44:13.774Z,35.80
2022-08-22T16:46:42.535Z,36.50
2022-08-22T16:49:10.376Z,36.40
2022-08-22T16:51:55.803Z,36.40
2022-08-22T16:54:41.139Z,36.50
2022-08-22T16:57:27.926Z,36.30
2022-08-22T16:59:59.728Z,35.90
2022-08-22T17:02:34.378Z,36.20
2022-08-22T17:05:21.855Z,35.90
2022-08-22T17:07:48.346Z,35.90
2022-08-22T17:10:18.704Z,36.10
2022-08-22T17:13:06.126Z,36.20
2022-08-22T17:15:32.763Z,36.00
2022-08-22T17:18:12.129Z,35.80
2022-08-22T17:20:57.452Z,35.80
2022-08-22T17:23:42.870Z,35.40
2022-08-22T17:26:24.495Z,34.00
2022-08-22T17:29:04.330Z,33.10
2022-08-22T17:31:46.130Z,32.50
2022-08-22T17:34:19.715Z,32.00
2022-08-22T17:36:46.219Z,31.50
2022-08-22T17:39:12.987Z,31.20
2022-08-22T17:41:52.446Z,30.90
2022-08-22T17:44:25.682Z,30.70
2022-08-22T17:46:55.130Z,30.40
2022-08-22T17:49:24.700Z,30.10
2022-08-22T17:51:55.103Z,29.90
2022-08-22T17:54:29.677Z,29.80
2022-08-22T17:57:19.264Z,29.60
2022-08-22T17:59:49.407Z,29.40
2022-08-22T18:02:16.268Z,29.20
2022-08-22T18:04:52.405Z,29.10
2022-08-22T18:07:28.891Z,28.90
2022-08-22T18:10:14.530Z,28.70
2022-08-22T18:12:51.786Z,28.50
2022-08-22T18:15:21.190Z,28.30
2022-08-22T18:18:00.028Z,28.10
2022-08-22T18:20:45.067Z,27.90
2022-08-22T18:23:35.983Z,27.80
2022-08-22T18:26:13.025Z,27.50
2022-08-22T18:28:48.631Z,27.40
2022-08-22T18:31:38.180Z,27.30
2022-08-22T18:34:09.262Z,27.20
2022-08-22T18:36:39.571Z,27.00
2022-08-22T18:39:15.228Z,26.90
2022-08-22T18:42:07.938Z,26.70
2022-08-22T18:44:36.654Z,26.60
2022-08-22T18:47:15.033Z,26.50
2022-08-22T18:49:43.839Z,26.30
2022-08-22T18:52:22.198Z,26.20
2022-08-22T18:54:54.967Z,26.10
2022-08-22T18:57:38.700Z,26.10
2022-08-22T19:00:29.665Z,25.90
2022-08-22T19:03:17.423Z,25.70
2022-08-22T19:06:05.018Z,25.60
2022-08-22T19:08:53.611Z,25.50
2022-08-22T19:11:25.235Z,25.40
2022-08-22T19:14:16.958Z,25.20
2022-08-22T19:16:50.795Z,25.20
2022-08-22T19:19:21.127Z,25.00
2022-08-22T19:22:22.356Z,24.90
2022-08-22T19:25:08.987Z,24.90
2022-08-22T19:27:40.359Z,24.70
2022-08-22T19:30:28.092Z,24.70
2022-08-22T19:32:56.606Z,24.50
2022-08-22T19:35:25.837Z,24.50
2022-08-22T19:37:57.536Z,24.30
2022-08-22T19:40:42.515Z,24.20
2022-08-22T19:43:44.519Z,24.10
2022-08-22T19:46:12.650Z,24.00
2022-08-22T19:48:50.209Z,23.90
2022-08-22T19:51:20.263Z,23.90
2022-08-22T19:53:55.602Z,23.80
2022-08-22T19:56:31.804Z,23.70
2022-08-22T19:59:02.531Z,23.70
2022-08-22T20:01:56.066Z,23.50
2022-08-22T20:04:48.288Z,23.50
2022-08-22T20:07:39.173Z,23.40
2022-08-22T20:10:17.784Z,23.30
2022-08-22T20:13:07.588Z,23.20
2022-08-22T20:15:54.503Z,23.20
2022-08-22T20:18:48.667Z,23.10
2022-08-22T20:21:38.838Z,23.10
2022-08-22T20:24:08.709Z,22.90
2022-08-22T20:26:43.552Z,22.80
2022-08-22T20:29:30.368Z,22.80
2022-08-22T20:31:58.862Z,22.70
2022-08-22T20:34:27.724Z,22.60
2022-08-22T20:37:09.844Z,22.50
2022-08-22T20:39:59.179Z,22.60
2022-08-22T20:42:26.532Z,22.40
2022-08-22T20:44:53.800Z,22.40
2022-08-22T20:47:24.707Z,22.40
2022-08-22T20:49:53.306Z,22.30
2022-08-22T20:52:19.802Z,22.20
2022-08-22T20:54:57.540Z,22.10
2022-08-22T20:57:24.218Z,22.10
2022-08-22T20:59:53.354Z,22.10
2022-08-22T21:02:28.466Z,22.00
2022-08-22T21:05:02.694Z,21.90
2022-08-22T21:07:34.563Z,21.90
2022-08-22T21:10:24.508Z,21.80
2022-08-22T21:13:01.105Z,21.90
2022-08-22T21:15:31.860Z,21.80
2022-08-22T21:17:58.590Z,21.80
2022-08-22T21:20:29.579Z,21.80
2022-08-22T21:23:00.251Z,21.80
2022-08-22T21:25:26.818Z,21.90
2022-08-22T21:27:54.995Z,21.90
2022-08-22T21:30:23.511Z,21.90
2022-08-22T21:32:55.510Z,21.80
2022-08-22T21:35:29.753Z,21.80
2022-08-22T21:37:57.172Z,21.80
2022-08-22T21:40:29.697Z,21.80
2022-08-22T21:43:02.140Z,21.80
2022-08-22T21:45:30.886Z,21.80
2022-08-22T21:47:57.909Z,21.70
2022-08-22T21:50:26.501Z,21.70
2022-08-22T21:52:56.149Z,21.80
2022-08-22T21:55:26.218Z,21.80
2022-08-22T21:58:06.683Z,21.70
2022-08-22T22:00:49.408Z,21.70
2022-08-22T22:03:17.669Z,21.70
2022-08-22T22:05:44.242Z,21.60
2022-08-22T22:08:11.186Z,21.60
2022-08-22T22:10:41.798Z,21.60
2022-08-22T22:13:08.655Z,21.60
2022-08-22T22:15:36.907Z,21.60
2022-08-22T22:18:04.178Z,21.50
2022-08-22T22:20:30.898Z,21.50
2022-08-22T22:22:57.431Z,21.40
2022-08-22T22:25:40.999Z,21.40
2022-08-22T22:28:16.323Z,21.40
2022-08-22T22:30:43.229Z,21.30
2022-08-22T22:33:09.981Z,21.30
2022-08-22T22:35:40.008Z,21.20
2022-08-22T22:38:06.970Z,21.20
2022-08-22T22:40:33.666Z,21.10
2022-08-22T22:43:00.229Z,21.10
2022-08-22T22:45:26.832Z,21.10
2022-08-22T22:47:53.471Z,21.10
2022-08-22T22:50:20.065Z,21.00
2022-08-22T22:52:46.611Z,21.00
2022-08-22T22:55:13.236Z,20.90
2022-08-22T22:57:59.162Z,21.00
2022-08-22T23:00:30.886Z,20.90
2022-08-22T23:03:01.639Z,20.90
2022-08-22T23:05:29.247Z,20.90
2022-08-22T23:07:56.046Z,20.90
2022-08-22T23:10:22.625Z,20.90
2022-08-22T23:12:49.442Z,20.90
2022-08-22T23:15:16.635Z,20.90
2022-08-22T23:17:43.656Z,20.90
2022-08-22T23:20:10.403Z,20.90
2022-08-22T23:22:37.079Z,20.90
2022-08-22T23:25:04.355Z,20.90
2022-08-22T23:27:31.424Z,20.90
2022-08-22T23:29:57.954Z,20.90
2022-08-22T23:32:24.580Z,20.80
2022-08-22T23:34:51.207Z,20.80
2022-08-22T23:37:20.724Z,20.70
2022-08-22T23:39:47.460Z,20.70
2022-08-22T23:42:14.779Z,20.70
2022-08-22T23:44:42.114Z,20.70
2022-08-22T23:47:09.511Z,20.70
2022-08-22T23:49:36.582Z,20.60
2022-08-22T23:52:03.575Z,20.60
2022-08-22T23:54:30.247Z,20.60
2022-08-22T23:56:58.112Z,20.50
2022-08-22T23:59:30.623Z,20.50
